createdAt,value
2023-04-21T00:00:10.080Z,99500.06
2023-04-21T00:02:58.799Z,99500.28
2023-04-21T00:05:27.210Z,99500.72
2023-04-21T00:07:54.429Z,99499.50
2023-04-21T00:10:21.934Z,99495.00
2023-04-21T00:12:49.056Z,99511.22
2023-04-21T00:15:16.522Z,99505.69
2023-04-21T00:17:44.028Z,99492.56
2023-04-21T00:20:12.334Z,99502.25
2023-04-21T00:22:39.423Z,99493.00
2023-04-21T00:25:07.720Z,99490.78
2023-04-21T00:27:34.839Z,99491.19
2023-04-21T00:30:02.441Z,99485.28
2023-04-21T00:32:29.730Z,99488.53
2023-04-21T00:34:58.118Z,99488.72
2023-04-21T00:37:25.246Z,99487.94
2023-04-21T00:39:52.805Z,99485.28
2023-04-21T00:42:19.919Z,99494.28
2023-04-21T00:44:47.359Z,99493.88
2023-04-21T00:47:14.553Z,99491.44
2023-04-21T00:49:42.982Z,99488.16
2023-04-21T00:52:11.400Z,99484.88
2023-04-21T00:54:40.550Z,99479.56
2023-04-21T00:57:07.983Z,99485.31
2023-04-21T00:59:36.206Z,99479.56
2023-04-21T01:02:04.457Z,99485.72
2023-04-21T01:04:36.984Z,99480.38
2023-04-21T01:07:06.026Z,99484.88
2023-04-21T01:09:34.732Z,99474.44
2023-04-21T01:12:09.339Z,99480.00
2023-04-21T01:14:39.877Z,99481.84
2023-04-21T01:17:08.644Z,99479.19
2023-04-21T01:19:40.056Z,99481.44
2023-04-21T01:22:12.781Z,99485.34
2023-04-21T01:24:47.359Z,99484.50
2023-04-21T01:27:21.610Z,99487.38
2023-04-21T01:29:52.776Z,99483.06
2023-04-21T01:32:27.638Z,99482.06
2023-04-21T01:34:57.706Z,99486.19
2023-04-21T01:37:30.028Z,99489.84
2023-04-21T01:39:59.740Z,99489.84
2023-04-21T01:42:29.168Z,99486.59
2023-04-21T01:44:59.620Z,99486.59
2023-04-21T01:47:26.848Z,99483.31
2023-04-21T01:49:54.520Z,99485.56
2023-04-21T01:52:21.780Z,99480.88
2023-04-21T01:54:49.663Z,99481.28
2023-04-21T01:57:17.931Z,99479.25
2023-04-21T01:59:46.078Z,99480.47
2023-04-21T02:02:13.335Z,99480.47
2023-04-21T02:04:41.171Z,99484.19
2023-04-21T02:07:08.517Z,99478.44
2023-04-21T02:09:36.489Z,99479.25
2023-04-21T02:12:03.855Z,99487.44
2023-04-21T02:14:31.900Z,99488.66
2023-04-21T02:16:59.556Z,99481.72
2023-04-21T02:19:26.997Z,99480.28
2023-04-21T02:21:55.820Z,99480.91
2023-04-21T02:24:23.201Z,99487.06
2023-04-21T02:26:50.421Z,99490.72
2023-04-21T02:29:17.977Z,99494.00
2023-04-21T02:31:57.790Z,99482.97
2023-04-21T02:34:28.908Z,99496.47
2023-04-21T02:36:56.122Z,99494.03
2023-04-21T02:39:23.547Z,99485.81
2023-04-21T02:41:50.783Z,99494.81
2023-04-21T02:44:18.419Z,99494.81
2023-04-21T02:46:45.708Z,99493.59
2023-04-21T02:49:13.620Z,99495.63
2023-04-21T02:51:40.925Z,99487.00
2023-04-21T02:54:08.527Z,99485.78
2023-04-21T02:56:36.086Z,99482.91
2023-04-21T02:59:03.569Z,99486.19
2023-04-21T03:01:30.946Z,99489.06
2023-04-21T03:03:58.800Z,99496.22
2023-04-21T03:06:27.345Z,99492.31
2023-04-21T03:08:54.872Z,99484.97
2023-04-21T03:11:22.128Z,99487.81
2023-04-21T03:13:49.518Z,99491.28
2023-04-21T03:16:17.093Z,99479.63
2023-04-21T03:18:44.805Z,99484.53
2023-04-21T03:21:13.326Z,99491.06
2023-04-21T03:23:40.777Z,99490.06
2023-04-21T03:26:08.739Z,99489.44
2023-04-21T03:28:36.434Z,99489.84
2023-04-21T03:31:03.714Z,99486.56
2023-04-21T03:33:31.262Z,99489.03
2023-04-21T03:35:58.489Z,99487.38
2023-04-21T03:38:25.930Z,99489.81
2023-04-21T03:40:53.217Z,99494.31
2023-04-21T03:43:21.017Z,99498.78
2023-04-21T03:45:48.203Z,99495.53
2023-04-21T03:48:16.023Z,99495.13
2023-04-21T03:50:43.156Z,99493.25
2023-04-21T03:53:10.836Z,99509.81
2023-04-21T03:55:38.056Z,99511.84
2023-04-21T03:58:05.519Z,99504.88
2023-04-21T04:00:32.584Z,99513.69
2023-04-21T04:03:00.159Z,99509.81
2023-04-21T04:05:28.318Z,99511.63
2023-04-21T04:07:55.919Z,99516.31
2023-04-21T04:10:23.059Z,99514.66
2023-04-21T04:12:50.885Z,99522.03
2023-04-21T04:15:18.174Z,99522.41
2023-04-21T04:17:45.630Z,99529.38
2023-04-21T04:20:12.902Z,99527.72
2023-04-21T04:22:40.268Z,99529.38
2023-04-21T04:25:07.627Z,99529.19
2023-04-21T04:27:35.512Z,99534.69
2023-04-21T04:30:03.526Z,99531.00
2023-04-21T04:32:31.366Z,99535.94
2023-04-21T04:34:58.826Z,99536.75
2023-04-21T04:37:26.594Z,99534.94
2023-04-21T04:39:54.432Z,99531.88
2023-04-21T04:42:21.863Z,99545.78
2023-04-21T04:44:48.866Z,99543.34
2023-04-21T04:47:16.391Z,99536.81
2023-04-21T04:49:43.588Z,99547.47
2023-04-21T04:52:11.124Z,99549.53
2023-04-21T04:54:38.290Z,99547.31
2023-04-21T04:57:05.621Z,99552.44
2023-04-21T04:59:32.739Z,99551.84
2023-04-21T05:02:00.434Z,99546.34
2023-04-21T05:04:29.051Z,99554.34
2023-04-21T05:06:56.716Z,99543.50
2023-04-21T05:09:23.860Z,99545.97
2023-04-21T05:11:51.363Z,99543.13
2023-04-21T05:14:18.681Z,99538.84
2023-04-21T05:16:46.821Z,99546.88
2023-04-21T05:19:14.353Z,99543.78
2023-04-21T05:21:42.792Z,99543.16
2023-04-21T05:24:09.904Z,99547.03
2023-04-21T05:26:37.448Z,99538.63
2023-04-21T05:29:04.632Z,99544.34
2023-04-21T05:31:33.047Z,99549.66
2023-04-21T05:34:00.208Z,99545.31
2023-04-21T05:36:27.872Z,99550.78
2023-04-21T05:38:55.430Z,99540.47
2023-04-21T05:41:23.015Z,99548.81
2023-04-21T05:43:50.036Z,99545.44
2023-04-21T05:46:17.508Z,99538.16
2023-04-21T05:48:44.650Z,99540.13
2023-04-21T05:51:15.410Z,99537.84
2023-04-21T05:53:44.751Z,99536.69
2023-04-21T05:56:12.959Z,99529.59
2023-04-21T05:58:40.191Z,99536.03
2023-04-21T06:01:08.031Z,99535.25
2023-04-21T06:03:35.932Z,99537.13
2023-04-21T06:06:06.146Z,99537.56
2023-04-21T06:08:33.436Z,99536.59
2023-04-21T06:11:00.776Z,99518.69
2023-04-21T06:13:28.089Z,99521.56
2023-04-21T06:15:55.756Z,99527.56
2023-04-21T06:18:24.007Z,99527.91
2023-04-21T06:20:53.055Z,99522.50
2023-04-21T06:23:21.335Z,99527.75
2023-04-21T06:26:04.764Z,99529.91
2023-04-21T06:28:33.510Z,99538.16
2023-04-21T06:31:01.926Z,99530.94
2023-04-21T06:33:30.249Z,99524.88
2023-04-21T06:35:57.945Z,99520.84
2023-04-21T06:38:25.215Z,99527.44
2023-04-21T06:40:52.625Z,99528.63
2023-04-21T06:43:20.247Z,99523.47
2023-04-21T06:45:47.682Z,99516.81
2023-04-21T06:48:14.848Z,99517.31
2023-04-21T06:50:44.312Z,99513.59
2023-04-21T06:53:12.045Z,99511.06
2023-04-21T06:55:39.402Z,99508.69
2023-04-21T06:58:06.632Z,99517.69
2023-04-21T07:00:34.042Z,99513.72
2023-04-21T07:03:03.448Z,99502.50
2023-04-21T07:05:31.026Z,99508.78
2023-04-21T07:07:59.926Z,99493.25
2023-04-21T07:10:29.891Z,99497.06
2023-04-21T07:12:57.383Z,99493.06
2023-04-21T07:15:24.830Z,99495.34
2023-04-21T07:17:51.986Z,99493.88
2023-04-21T07:20:19.732Z,99493.91
2023-04-21T07:22:46.917Z,99497.09
2023-04-21T07:25:14.429Z,99486.16
2023-04-21T07:27:41.748Z,99494.06
2023-04-21T07:30:09.707Z,99489.78
2023-04-21T07:32:38.612Z,99486.59
2023-04-21T07:35:07.202Z,99488.50
2023-04-21T07:37:34.469Z,99491.19
2023-04-21T07:40:01.984Z,99483.34
2023-04-21T07:42:29.528Z,99473.63
2023-04-21T07:44:57.644Z,99472.50
2023-04-21T07:47:25.239Z,99475.09
2023-04-21T07:49:52.885Z,99476.38
2023-04-21T07:52:20.282Z,99469.63
2023-04-21T07:54:47.714Z,99474.22
2023-04-21T07:57:15.568Z,99468.75
2023-04-21T07:59:43.433Z,99467.94
2023-04-21T08:02:10.668Z,99463.78
2023-04-21T08:04:38.384Z,99465.22
2023-04-21T08:07:06.051Z,99462.28
2023-04-21T08:09:33.490Z,99461.31
2023-04-21T08:12:03.396Z,99463.69
2023-04-21T08:14:32.234Z,99471.38
2023-04-21T08:17:00.040Z,99457.22
2023-04-21T08:19:27.598Z,99455.72
2023-04-21T08:21:55.324Z,99458.88
2023-04-21T08:24:22.990Z,99459.00
2023-04-21T08:26:51.030Z,99444.63
2023-04-21T08:29:18.551Z,99437.06
2023-04-21T08:31:45.900Z,99442.38
2023-04-21T08:34:13.929Z,99438.56
2023-04-21T08:36:42.777Z,99443.50
2023-04-21T08:39:10.667Z,99431.91
2023-04-21T08:41:41.206Z,99435.13
2023-04-21T08:44:11.685Z,99433.72
2023-04-21T08:46:40.233Z,99437.56
2023-04-21T08:49:10.524Z,99436.72
2023-04-21T08:51:37.677Z,99428.06
2023-04-21T08:54:05.741Z,99426.66
2023-04-21T08:56:32.925Z,99429.06
2023-04-21T08:59:00.436Z,99418.00
2023-04-21T09:01:27.669Z,99416.34
2023-04-21T09:04:16.769Z,99408.78
2023-04-21T09:06:45.975Z,99413.31
2023-04-21T09:09:13.481Z,99404.94
2023-04-21T09:11:40.735Z,99408.91
2023-04-21T09:14:09.131Z,99405.09
2023-04-21T09:16:36.810Z,99402.13
2023-04-21T09:19:15.587Z,99404.38
2023-04-21T09:21:44.516Z,99399.84
2023-04-21T09:24:13.131Z,99395.94
2023-04-21T09:26:42.964Z,99391.31
2023-04-21T09:29:10.509Z,99390.59
2023-04-21T09:31:37.821Z,99388.25
2023-04-21T09:34:43.185Z,99389.31
2023-04-21T09:37:14.638Z,99390.06
2023-04-21T09:40:03.376Z,99385.16
2023-04-21T09:42:38.949Z,99374.53
2023-04-21T09:47:51.855Z,99380.03
2023-04-21T09:50:51.162Z,99385.47
2023-04-21T09:53:21.784Z,99383.38
2023-04-21T09:55:54.066Z,99389.03
2023-04-21T09:58:24.716Z,99392.22
2023-04-21T10:00:55.626Z,99373.94
2023-04-21T10:03:27.670Z,99373.06
2023-04-21T10:05:55.886Z,99374.00
2023-04-21T10:08:23.156Z,99362.34
2023-04-21T10:10:52.786Z,99362.84
2023-04-21T10:13:21.129Z,99370.16
2023-04-21T10:15:48.532Z,99365.38
2023-04-21T10:18:22.652Z,99366.88
2023-04-21T10:20:58.193Z,99361.56
2023-04-21T10:23:45.759Z,99363.69
2023-04-21T10:26:25.790Z,99371.38
2023-04-21T10:29:06.341Z,99370.44
2023-04-21T10:31:44.012Z,99369.00
2023-04-21T10:34:12.153Z,99370.13
2023-04-21T10:36:48.328Z,99357.72
2023-04-21T10:39:29.813Z,99360.97
2023-04-21T10:42:19.629Z,99352.56
2023-04-21T10:44:58.891Z,99350.09
2023-04-21T10:47:42.630Z,99350.91
2023-04-21T10:50:20.389Z,99343.16
2023-04-21T10:52:57.854Z,99342.88
2023-04-21T10:55:30.174Z,99342.53
2023-04-21T10:58:02.958Z,99337.59
2023-04-21T11:00:30.475Z,99340.22
2023-04-21T11:03:07.102Z,99326.78
2023-04-21T11:05:40.896Z,99334.31
2023-04-21T11:08:13.083Z,99328.34
2023-04-21T11:10:49.698Z,99337.19
2023-04-21T11:13:17.220Z,99324.91
2023-04-21T11:15:57.968Z,99324.69
2023-04-21T11:18:44.029Z,99332.22
2023-04-21T11:21:18.398Z,99326.78
2023-04-21T11:23:52.608Z,99327.06
2023-04-21T11:26:34.393Z,99327.72
2023-04-21T11:29:07.535Z,99326.34
2023-04-21T11:31:40.827Z,99327.34
2023-04-21T11:34:08.595Z,99326.28
2023-04-21T11:36:44.956Z,99328.69
2023-04-21T11:39:16.389Z,99319.19
2023-04-21T11:41:47.953Z,99309.00
2023-04-21T11:44:35.673Z,99311.09
2023-04-21T11:47:33.073Z,99301.38
2023-04-21T11:50:04.113Z,99312.94
2023-04-21T11:52:34.507Z,99304.91
2023-04-21T11:55:17.867Z,99299.88
2023-04-21T11:57:45.071Z,99308.28
2023-04-21T12:00:16.679Z,99298.44
2023-04-21T12:02:44.451Z,99302.53
2023-04-21T12:05:14.478Z,99304.44
2023-04-21T12:07:47.929Z,99297.88
2023-04-21T12:10:20.043Z,99290.19
2023-04-21T12:12:48.209Z,99289.16
2023-04-21T12:15:23.022Z,99286.16
2023-04-21T12:17:53.648Z,99288.72
2023-04-21T12:20:24.843Z,99283.75
2023-04-21T12:22:53.360Z,99284.16
2023-04-21T12:25:20.681Z,99274.84
2023-04-21T12:27:52.467Z,99281.16
2023-04-21T12:30:21.290Z,99272.47
2023-04-21T12:32:48.780Z,99271.47
2023-04-21T12:35:16.498Z,99271.91
2023-04-21T12:37:44.738Z,99267.59
2023-04-21T12:40:12.315Z,99269.44
2023-04-21T12:42:39.751Z,99256.13
2023-04-21T12:45:08.104Z,99264.97
2023-04-21T12:47:37.020Z,99263.69
2023-04-21T12:50:05.554Z,99258.41
2023-04-21T12:52:32.713Z,99246.13
2023-04-21T12:55:00.237Z,99252.06
2023-04-21T12:57:27.554Z,99253.53
2023-04-21T12:59:55.963Z,99254.88
2023-04-21T13:02:23.240Z,99256.38
2023-04-21T13:04:50.918Z,99257.25
2023-04-21T13:07:21.250Z,99261.50
2023-04-21T13:09:48.842Z,99266.56
2023-04-21T13:12:16.033Z,99254.25
2023-04-21T13:14:43.425Z,99254.44
2023-04-21T13:17:11.252Z,99243.91
2023-04-21T13:19:38.815Z,99250.41
2023-04-21T13:22:05.956Z,99243.00
2023-04-21T13:24:33.975Z,99235.91
2023-04-21T13:27:02.020Z,99228.72
2023-04-21T13:29:33.948Z,99232.00
2023-04-21T13:32:03.596Z,99230.00
2023-04-21T13:34:33.476Z,99222.41
2023-04-21T13:37:02.189Z,99227.88
2023-04-21T13:39:29.912Z,99222.75
2023-04-21T13:41:58.022Z,99223.03
2023-04-21T13:44:25.532Z,99214.50
2023-04-21T13:46:54.072Z,99227.03
2023-04-21T13:49:21.482Z,99228.88
2023-04-21T13:51:48.635Z,99220.47
2023-04-21T13:54:16.071Z,99218.69
2023-04-21T13:56:43.321Z,99217.94
2023-04-21T13:59:11.315Z,99210.53
2023-04-21T14:01:38.599Z,99214.59
2023-04-21T14:04:06.907Z,99209.03
2023-04-21T14:06:34.305Z,99210.84
2023-04-21T14:09:01.733Z,99202.44
2023-04-21T14:11:28.894Z,99197.25
2023-04-21T14:14:08.861Z,99194.03
2023-04-21T14:16:37.468Z,99200.50
2023-04-21T14:19:04.929Z,99193.97
2023-04-21T14:21:32.626Z,99189.97
2023-04-21T14:24:00.237Z,99191.59
2023-04-21T14:26:27.561Z,99177.88
2023-04-21T14:28:54.991Z,99180.91
2023-04-21T14:31:22.509Z,99181.66
2023-04-21T14:33:50.034Z,99177.47
2023-04-21T14:36:17.517Z,99177.59
2023-04-21T14:38:45.101Z,99185.03
2023-04-21T14:41:12.650Z,99176.06
2023-04-21T14:43:40.045Z,99171.44
2023-04-21T14:46:07.540Z,99170.00
2023-04-21T14:48:35.377Z,99171.34
2023-04-21T14:51:02.707Z,99169.78
2023-04-21T14:53:30.148Z,99162.66
2023-04-21T14:55:57.304Z,99167.13
2023-04-21T14:58:24.713Z,99157.94
2023-04-21T15:00:52.025Z,99161.38
2023-04-21T15:03:19.798Z,99161.56
2023-04-21T15:05:47.176Z,99160.13
2023-04-21T15:08:18.076Z,99155.09
2023-04-21T15:10:45.567Z,99161.78
2023-04-21T15:13:13.889Z,99159.13
2023-04-21T15:15:41.563Z,99149.22
2023-04-21T15:18:08.941Z,99146.97
2023-04-21T15:20:44.446Z,99148.50
2023-04-21T15:23:14.904Z,99155.59
2023-04-21T15:25:42.416Z,99142.69
2023-04-21T15:28:10.069Z,99150.25
2023-04-21T15:30:37.467Z,99147.41
2023-04-21T15:33:05.169Z,99140.59
2023-04-21T15:35:32.514Z,99142.84
2023-04-21T15:38:00.881Z,99140.50
2023-04-21T15:40:28.457Z,99134.25
2023-04-21T15:42:56.056Z,99141.06
2023-04-21T15:45:23.212Z,99133.69
2023-04-21T15:47:50.860Z,99137.91
2023-04-21T15:50:18.468Z,99134.94
2023-04-21T15:52:46.066Z,99128.81
2023-04-21T15:55:13.695Z,99128.31
2023-04-21T15:57:41.104Z,99127.72
2023-04-21T16:00:12.730Z,99137.31
2023-04-21T16:02:40.639Z,99139.34
2023-04-21T16:05:09.151Z,99132.25
2023-04-21T16:07:36.716Z,99125.25
2023-04-21T16:10:04.050Z,99126.97
2023-04-21T16:12:31.503Z,99126.47
2023-04-21T16:15:09.400Z,99122.06
2023-04-21T16:17:44.033Z,99113.44
2023-04-21T16:20:12.460Z,99118.78
2023-04-21T16:22:40.316Z,99123.31
2023-04-21T16:25:08.756Z,99118.50
2023-04-21T16:27:36.400Z,99125.09
2023-04-21T16:30:06.671Z,99126.44
2023-04-21T16:32:35.740Z,99124.84
2023-04-21T16:35:09.926Z,99121.47
2023-04-21T16:37:40.399Z,99121.22
2023-04-21T16:40:09.790Z,99123.34
2023-04-21T16:42:37.953Z,99128.28
2023-04-21T16:45:05.869Z,99120.44
2023-04-21T16:47:42.088Z,99126.75
2023-04-21T16:50:10.369Z,99122.63
2023-04-21T16:52:39.338Z,99123.03
2023-04-21T16:55:06.898Z,99125.19
2023-04-21T16:57:34.849Z,99128.63
2023-04-21T17:00:06.620Z,99125.66
2023-04-21T17:02:34.539Z,99124.06
2023-04-21T17:05:02.295Z,99123.47
2023-04-21T17:07:31.398Z,99121.34
2023-04-21T17:09:58.535Z,99123.91
2023-04-21T17:12:25.908Z,99117.66
2023-04-21T17:14:53.019Z,99125.66
2023-04-21T17:17:20.488Z,99119.38
2023-04-21T17:19:47.595Z,99123.81
2023-04-21T17:22:15.090Z,99123.56
2023-04-21T17:24:52.592Z,99122.75
2023-04-21T17:27:21.420Z,99120.94
2023-04-21T17:29:48.669Z,99125.63
2023-04-21T17:32:16.185Z,99122.47
2023-04-21T17:34:43.568Z,99125.06
2023-04-21T17:37:11.183Z,99127.59
2023-04-21T17:39:38.671Z,99123.94
2023-04-21T17:42:06.561Z,99125.66
2023-04-21T17:44:33.704Z,99126.59
2023-04-21T17:47:02.094Z,99129.16
2023-04-21T17:49:29.268Z,99133.06
2023-04-21T17:51:56.807Z,99126.97
2023-04-21T17:54:24.021Z,99129.44
2023-04-21T17:56:51.658Z,99132.72
2023-04-21T17:59:18.773Z,99130.06
2023-04-21T18:01:46.282Z,99128.00
2023-04-21T18:04:13.996Z,99130.78
2023-04-21T18:06:41.749Z,99135.72
2023-04-21T18:09:09.496Z,99145.28
2023-04-21T18:11:38.154Z,99148.88
2023-04-21T18:14:06.355Z,99148.41
2023-04-21T18:16:34.180Z,99148.50
2023-04-21T18:19:01.652Z,99145.84
2023-04-21T18:21:29.054Z,99154.06
2023-04-21T18:23:56.132Z,99151.13
2023-04-21T18:26:26.546Z,99149.31
2023-04-21T18:28:54.617Z,99151.56
2023-04-21T18:31:25.845Z,99147.84
2023-04-21T18:33:53.320Z,99151.09
2023-04-21T18:36:20.656Z,99154.97
2023-04-21T18:38:47.858Z,99150.16
2023-04-21T18:41:16.072Z,99155.59
2023-04-21T18:43:43.482Z,99163.50
2023-04-21T18:46:11.253Z,99157.31
2023-04-21T18:48:38.653Z,99159.50
2023-04-21T18:51:06.083Z,99156.31
2023-04-21T18:53:33.499Z,99154.69
2023-04-21T18:56:00.955Z,99157.91
2023-04-21T18:58:28.115Z,99148.75
2023-04-21T19:00:56.036Z,99152.00
2023-04-21T19:03:25.195Z,99158.78
2023-04-21T19:05:52.714Z,99167.13
2023-04-21T19:08:30.074Z,99163.09
2023-04-21T19:11:06.053Z,99162.81
2023-04-21T19:13:33.287Z,99167.13
2023-04-21T19:16:01.388Z,99167.13
2023-04-21T19:18:28.679Z,99161.97
2023-04-21T19:20:56.188Z,99159.53
2023-04-21T19:23:23.380Z,99162.22
2023-04-21T19:25:54.549Z,99171.88
2023-04-21T19:28:21.792Z,99158.38
2023-04-21T19:30:49.521Z,99169.44
2023-04-21T19:33:16.865Z,99162.09
2023-04-21T19:35:44.380Z,99166.38
2023-04-21T19:38:11.663Z,99164.19
2023-04-21T19:40:39.222Z,99170.34
2023-04-21T19:43:08.733Z,99176.50
2023-04-21T19:45:37.530Z,99172.66
2023-04-21T19:48:06.918Z,99167.53
2023-04-21T19:50:35.779Z,99173.13
2023-04-21T19:53:03.693Z,99176.88
2023-04-21T19:55:31.888Z,99173.59
2023-04-21T19:57:59.141Z,99173.50
2023-04-21T20:00:26.716Z,99183.66
2023-04-21T20:02:54.157Z,99188.44
2023-04-21T20:05:21.746Z,99185.16
2023-04-21T20:07:49.037Z,99185.66
2023-04-21T20:10:16.544Z,99191.22
2023-04-21T20:12:43.927Z,99194.16
2023-04-21T20:15:12.803Z,99180.59
2023-04-21T20:17:41.694Z,99180.00
2023-04-21T20:20:10.621Z,99182.88
2023-04-21T20:22:37.720Z,99183.03
2023-04-21T20:25:07.535Z,99183.25
2023-04-21T20:27:34.874Z,99187.69
2023-04-21T20:30:02.809Z,99189.22
2023-04-21T20:32:30.237Z,99186.44
2023-04-21T20:34:59.559Z,99190.13
2023-04-21T20:37:26.704Z,99197.56
2023-04-21T20:39:54.080Z,99195.88
2023-04-21T20:42:21.764Z,99203.31
2023-04-21T20:44:49.108Z,99194.06
2023-04-21T20:47:17.621Z,99199.63
2023-04-21T20:49:46.925Z,99207.88
2023-04-21T20:52:14.138Z,99197.03
2023-04-21T20:54:41.743Z,99202.56
2023-04-21T20:57:10.216Z,99208.69
2023-04-21T20:59:38.273Z,99198.38
2023-04-21T21:02:05.717Z,99202.53
2023-04-21T21:04:33.523Z,99198.94
2023-04-21T21:07:03.607Z,99208.81
2023-04-21T21:09:31.725Z,99213.53
2023-04-21T21:11:58.860Z,99209.13
2023-04-21T21:14:26.544Z,99213.84
2023-04-21T21:16:54.694Z,99208.84
2023-04-21T21:19:22.302Z,99211.22
2023-04-21T21:21:49.472Z,99208.44
2023-04-21T21:24:17.006Z,99204.53
2023-04-21T21:26:44.144Z,99207.38
2023-04-21T21:29:11.660Z,99207.28
2023-04-21T21:31:39.433Z,99203.94
2023-04-21T21:34:06.785Z,99207.34
2023-04-21T21:36:34.025Z,99210.16
2023-04-21T21:39:03.551Z,99200.41
2023-04-21T21:41:30.576Z,99213.13
2023-04-21T21:43:58.172Z,99212.47
2023-04-21T21:46:25.476Z,99216.09
2023-04-21T21:48:52.884Z,99212.16
2023-04-21T21:51:20.218Z,99219.03
2023-04-21T21:53:47.568Z,99211.13
2023-04-21T21:56:14.675Z,99218.25
2023-04-21T21:58:42.447Z,99227.81
2023-04-21T22:01:09.871Z,99230.38
2023-04-21T22:03:37.793Z,99233.91
2023-04-21T22:06:06.148Z,99226.22
2023-04-21T22:08:33.585Z,99222.97
2023-04-21T22:11:02.924Z,99226.81
2023-04-21T22:13:30.268Z,99234.13
2023-04-21T22:15:57.536Z,99233.19
2023-04-21T22:18:24.996Z,99220.84
2023-04-21T22:20:52.169Z,99232.47
2023-04-21T22:23:21.307Z,99233.41
2023-04-21T22:25:48.422Z,99233.84
2023-04-21T22:28:15.781Z,99228.63
2023-04-21T22:30:43.096Z,99235.72
2023-04-21T22:33:10.788Z,99239.09
2023-04-21T22:35:37.952Z,99237.09
2023-04-21T22:38:05.708Z,99236.41
2023-04-21T22:40:33.343Z,99237.31
2023-04-21T22:43:00.959Z,99233.47
2023-04-21T22:45:28.385Z,99229.63
2023-04-21T22:47:56.548Z,99231.69
2023-04-21T22:50:24.109Z,99236.31
2023-04-21T22:52:51.834Z,99227.72
2023-04-21T22:55:19.040Z,99232.72
2023-04-21T22:57:46.516Z,99229.09
2023-04-21T23:00:15.346Z,99225.47
2023-04-21T23:02:42.917Z,99231.75
2023-04-21T23:05:10.750Z,99230.22
2023-04-21T23:07:38.282Z,99239.34
2023-04-21T23:10:05.989Z,99237.56
2023-04-21T23:12:33.555Z,99238.25
2023-04-21T23:15:00.980Z,99232.09
2023-04-21T23:17:29.607Z,99237.28
2023-04-21T23:19:56.854Z,99239.03
2023-04-21T23:22:26.069Z,99230.25
2023-04-21T23:24:53.463Z,99229.66
2023-04-21T23:27:20.951Z,99220.09
2023-04-21T23:29:48.094Z,99230.41
2023-04-21T23:32:15.438Z,99233.06
2023-04-21T23:34:42.619Z,99225.94
2023-04-21T23:37:10.747Z,99234.22
2023-04-21T23:39:38.072Z,99228.78
2023-04-21T23:42:06.347Z,99227.56
2023-04-21T23:44:33.961Z,99233.13
2023-04-21T23:47:01.451Z,99238.53
2023-04-21T23:49:28.544Z,99226.66
2023-04-21T23:51:56.024Z,99228.75
2023-04-21T23:54:23.305Z,99221.41
2023-04-21T23:56:51.102Z,99233.78
2023-04-21T23:59:18.428Z,99218.63
